sensor_id;sensor_type;location;lat;lon;timestamp;temperature;humidity
74792;SHT30;63319;46.046;17.802;2023-12-20T00:02:54;1.95;81.42
74792;SHT30;63319;46.046;17.802;2023-12-20T00:05:57;1.85;80.88
74792;SHT30;63319;46.046;17.802;2023-12-20T00:09:01;2.05;83.60
74792;SHT30;63319;46.046;17.802;2023-12-20T00:12:04;1.83;84.93
74792;SHT30;63319;46.046;17.802;2023-12-20T00:15:07;1.48;84.85
74792;SHT30;63319;46.046;17.802;2023-12-20T00:18:11;1.41;84.53
74792;SHT30;63319;46.046;17.802;2023-12-20T00:21:14;1.81;84.63
74792;SHT30;63319;46.046;17.802;2023-12-20T00:24:17;2.53;83.26
74792;SHT30;63319;46.046;17.802;2023-12-20T00:27:20;2.02;82.35
74792;SHT30;63319;46.046;17.802;2023-12-20T00:30:23;1.82;81.88
74792;SHT30;63319;46.046;17.802;2023-12-20T00:33:26;1.68;85.04
74792;SHT30;63319;46.046;17.802;2023-12-20T00:36:29;1.91;84.22
74792;SHT30;63319;46.046;17.802;2023-12-20T00:39:32;2.37;82.27
74792;SHT30;63319;46.046;17.802;2023-12-20T00:42:36;1.71;83.23
74792;SHT30;63319;46.046;17.802;2023-12-20T00:45:39;1.98;83.49
74792;SHT30;63319;46.046;17.802;2023-12-20T00:48:41;1.35;83.53
74792;SHT30;63319;46.046;17.802;2023-12-20T00:51:45;1.75;82.83
74792;SHT30;63319;46.046;17.802;2023-12-20T00:54:48;1.69;82.99
74792;SHT30;63319;46.046;17.802;2023-12-20T00:57:51;2.33;81.58
74792;SHT30;63319;46.046;17.802;2023-12-20T01:00:56;2.55;80.56
74792;SHT30;63319;46.046;17.802;2023-12-20T01:04:01;2.09;78.54
74792;SHT30;63319;46.046;17.802;2023-12-20T01:07:04;1.83;83.46
74792;SHT30;63319;46.046;17.802;2023-12-20T01:10:08;2.40;80.82
74792;SHT30;63319;46.046;17.802;2023-12-20T01:13:11;2.01;79.82
74792;SHT30;63319;46.046;17.802;2023-12-20T01:16:14;2.58;80.46
74792;SHT30;63319;46.046;17.802;2023-12-20T01:19:18;2.78;79.45
74792;SHT30;63319;46.046;17.802;2023-12-20T01:22:21;2.87;78.65
74792;SHT30;63319;46.046;17.802;2023-12-20T01:25:24;2.81;79.49
74792;SHT30;63319;46.046;17.802;2023-12-20T01:28:27;2.95;78.87
74792;SHT30;63319;46.046;17.802;2023-12-20T01:31:30;2.47;78.96
74792;SHT30;63319;46.046;17.802;2023-12-20T01:34:33;1.43;81.88
74792;SHT30;63319;46.046;17.802;2023-12-20T01:37:37;1.51;83.11
74792;SHT30;63319;46.046;17.802;2023-12-20T01:40:40;1.20;83.00
74792;SHT30;63319;46.046;17.802;2023-12-20T01:43:43;1.10;83.58
74792;SHT30;63319;46.046;17.802;2023-12-20T01:46:53;0.76;84.49
74792;SHT30;63319;46.046;17.802;2023-12-20T01:49:56;0.54;86.14
74792;SHT30;63319;46.046;17.802;2023-12-20T01:53:00;0.58;86.21
74792;SHT30;63319;46.046;17.802;2023-12-20T01:56:04;0.21;87.25
74792;SHT30;63319;46.046;17.802;2023-12-20T01:59:07;0.37;87.60
74792;SHT30;63319;46.046;17.802;2023-12-20T02:02:11;1.45;85.08
74792;SHT30;63319;46.046;17.802;2023-12-20T02:05:16;1.27;83.81
74792;SHT30;63319;46.046;17.802;2023-12-20T02:08:19;1.33;83.26
74792;SHT30;63319;46.046;17.802;2023-12-20T02:11:22;1.12;84.13
74792;SHT30;63319;46.046;17.802;2023-12-20T02:14:25;0.72;85.93
74792;SHT30;63319;46.046;17.802;2023-12-20T02:17:29;0.73;85.57
74792;SHT30;63319;46.046;17.802;2023-12-20T02:20:33;0.79;86.19
74792;SHT30;63319;46.046;17.802;2023-12-20T02:23:36;1.14;84.75
74792;SHT30;63319;46.046;17.802;2023-12-20T02:26:39;1.59;84.53
74792;SHT30;63319;46.046;17.802;2023-12-20T02:29:47;2.20;82.18
74792;SHT30;63319;46.046;17.802;2023-12-20T02:32:51;2.65;79.97
74792;SHT30;63319;46.046;17.802;2023-12-20T02:35:54;2.34;79.27
74792;SHT30;63319;46.046;17.802;2023-12-20T02:38:58;2.19;80.03
74792;SHT30;63319;46.046;17.802;2023-12-20T02:42:01;2.41;80.56
74792;SHT30;63319;46.046;17.802;2023-12-20T02:45:04;1.86;78.64
74792;SHT30;63319;46.046;17.802;2023-12-20T02:48:07;1.27;84.69
74792;SHT30;63319;46.046;17.802;2023-12-20T02:51:10;0.79;82.74
74792;SHT30;63319;46.046;17.802;2023-12-20T02:54:13;1.71;81.16
74792;SHT30;63319;46.046;17.802;2023-12-20T02:57:16;1.82;80.39
74792;SHT30;63319;46.046;17.802;2023-12-20T03:00:19;1.95;80.57
74792;SHT30;63319;46.046;17.802;2023-12-20T03:03:22;1.65;82.38
74792;SHT30;63319;46.046;17.802;2023-12-20T03:06:25;1.96;79.62
74792;SHT30;63319;46.046;17.802;2023-12-20T03:09:28;2.41;78.68
74792;SHT30;63319;46.046;17.802;2023-12-20T03:12:40;2.43;77.37
74792;SHT30;63319;46.046;17.802;2023-12-20T03:15:44;1.43;81.54
74792;SHT30;63319;46.046;17.802;2023-12-20T03:18:47;2.09;81.16
74792;SHT30;63319;46.046;17.802;2023-12-20T03:21:50;2.24;78.73
74792;SHT30;63319;46.046;17.802;2023-12-20T03:24:53;2.12;80.28
74792;SHT30;63319;46.046;17.802;2023-12-20T03:27:56;2.12;79.81
74792;SHT30;63319;46.046;17.802;2023-12-20T03:30:59;1.45;79.38
74792;SHT30;63319;46.046;17.802;2023-12-20T03:34:02;1.19;82.41
74792;SHT30;63319;46.046;17.802;2023-12-20T03:37:06;1.24;79.91
74792;SHT30;63319;46.046;17.802;2023-12-20T03:40:09;1.30;83.31
74792;SHT30;63319;46.046;17.802;2023-12-20T03:43:13;0.90;82.30
74792;SHT30;63319;46.046;17.802;2023-12-20T03:46:16;0.86;83.02
74792;SHT30;63319;46.046;17.802;2023-12-20T03:49:19;0.51;83.92
74792;SHT30;63319;46.046;17.802;2023-12-20T03:52:22;1.14;83.88
74792;SHT30;63319;46.046;17.802;2023-12-20T03:55:25;1.04;84.80
74792;SHT30;63319;46.046;17.802;2023-12-20T03:58:28;0.36;85.16
74792;SHT30;63319;46.046;17.802;2023-12-20T04:01:31;1.06;86.19
74792;SHT30;63319;46.046;17.802;2023-12-20T04:04:34;0.28;85.94
74792;SHT30;63319;46.046;17.802;2023-12-20T04:07:38;1.58;83.12
74792;SHT30;63319;46.046;17.802;2023-12-20T04:10:41;2.20;79.33
74792;SHT30;63319;46.046;17.802;2023-12-20T04:13:44;2.03;79.92
74792;SHT30;63319;46.046;17.802;2023-12-20T04:16:47;1.87;79.81
74792;SHT30;63319;46.046;17.802;2023-12-20T04:19:50;2.05;79.46
74792;SHT30;63319;46.046;17.802;2023-12-20T04:22:54;2.33;78.45
74792;SHT30;63319;46.046;17.802;2023-12-20T04:25:57;2.40;79.10
74792;SHT30;63319;46.046;17.802;2023-12-20T04:29:00;2.72;77.20
74792;SHT30;63319;46.046;17.802;2023-12-20T04:32:04;2.84;77.85
74792;SHT30;63319;46.046;17.802;2023-12-20T04:35:07;2.84;76.79
74792;SHT30;63319;46.046;17.802;2023-12-20T04:38:11;2.75;77.77
74792;SHT30;63319;46.046;17.802;2023-12-20T04:41:14;3.27;75.94
74792;SHT30;63319;46.046;17.802;2023-12-20T04:44:18;3.06;76.88
74792;SHT30;63319;46.046;17.802;2023-12-20T04:47:21;2.22;80.17
74792;SHT30;63319;46.046;17.802;2023-12-20T04:50:24;2.47;79.33
74792;SHT30;63319;46.046;17.802;2023-12-20T04:53:28;2.65;79.19
74792;SHT30;63319;46.046;17.802;2023-12-20T04:56:31;2.64;79.22
74792;SHT30;63319;46.046;17.802;2023-12-20T04:59:33;2.60;78.88
74792;SHT30;63319;46.046;17.802;2023-12-20T05:02:37;2.88;79.13
74792;SHT30;63319;46.046;17.802;2023-12-20T05:05:40;2.54;80.96
74792;SHT30;63319;46.046;17.802;2023-12-20T05:08:43;1.71;83.98
74792;SHT30;63319;46.046;17.802;2023-12-20T05:11:46;1.85;83.24
74792;SHT30;63319;46.046;17.802;2023-12-20T05:14:49;1.38;86.58
74792;SHT30;63319;46.046;17.802;2023-12-20T05:17:52;1.24;87.98
74792;SHT30;63319;46.046;17.802;2023-12-20T05:20:55;2.01;85.56
74792;SHT30;63319;46.046;17.802;2023-12-20T05:24:01;2.26;83.35
74792;SHT30;63319;46.046;17.802;2023-12-20T05:27:04;1.78;85.01
74792;SHT30;63319;46.046;17.802;2023-12-20T05:30:07;1.35;86.24
74792;SHT30;63319;46.046;17.802;2023-12-20T05:33:10;1.44;87.31
74792;SHT30;63319;46.046;17.802;2023-12-20T05:36:13;2.07;85.24
74792;SHT30;63319;46.046;17.802;2023-12-20T05:39:18;1.43;85.06
74792;SHT30;63319;46.046;17.802;2023-12-20T05:42:21;1.71;84.16
74792;SHT30;63319;46.046;17.802;2023-12-20T05:45:24;1.08;84.88
74792;SHT30;63319;46.046;17.802;2023-12-20T05:48:27;0.89;86.63
74792;SHT30;63319;46.046;17.802;2023-12-20T05:51:30;1.31;86.94
74792;SHT30;63319;46.046;17.802;2023-12-20T05:54:33;1.51;85.19
74792;SHT30;63319;46.046;17.802;2023-12-20T05:57:37;0.83;87.76
74792;SHT30;63319;46.046;17.802;2023-12-20T06:00:40;0.86;88.64
74792;SHT30;63319;46.046;17.802;2023-12-20T06:03:43;1.28;88.00
74792;SHT30;63319;46.046;17.802;2023-12-20T06:06:46;0.70;88.19
74792;SHT30;63319;46.046;17.802;2023-12-20T06:09:49;1.12;87.19
74792;SHT30;63319;46.046;17.802;2023-12-20T06:12:53;1.61;85.02
74792;SHT30;63319;46.046;17.802;2023-12-20T06:15:56;1.74;82.81
74792;SHT30;63319;46.046;17.802;2023-12-20T06:19:00;1.68;82.04
74792;SHT30;63319;46.046;17.802;2023-12-20T06:22:03;1.22;84.81
74792;SHT30;63319;46.046;17.802;2023-12-20T06:25:06;1.08;82.96
74792;SHT30;63319;46.046;17.802;2023-12-20T06:28:09;1.03;83.56
74792;SHT30;63319;46.046;17.802;2023-12-20T06:31:13;0.72;84.28
74792;SHT30;63319;46.046;17.802;2023-12-20T06:34:16;0.82;84.25
74792;SHT30;63319;46.046;17.802;2023-12-20T06:37:19;0.72;84.00
74792;SHT30;63319;46.046;17.802;2023-12-20T06:40:22;1.20;82.56
74792;SHT30;63319;46.046;17.802;2023-12-20T06:43:25;0.89;83.36
74792;SHT30;63319;46.046;17.802;2023-12-20T06:46:48;1.06;84.02
74792;SHT30;63319;46.046;17.802;2023-12-20T06:49:51;1.85;82.19
74792;SHT30;63319;46.046;17.802;2023-12-20T06:52:54;1.83;81.34
74792;SHT30;63319;46.046;17.802;2023-12-20T06:55:57;1.87;81.33
74792;SHT30;63319;46.046;17.802;2023-12-20T06:59:00;2.12;80.43
74792;SHT30;63319;46.046;17.802;2023-12-20T07:02:03;1.65;81.12
74792;SHT30;63319;46.046;17.802;2023-12-20T07:05:06;1.56;82.32
74792;SHT30;63319;46.046;17.802;2023-12-20T07:08:09;1.26;82.53
74792;SHT30;63319;46.046;17.802;2023-12-20T07:11:13;1.65;82.25
74792;SHT30;63319;46.046;17.802;2023-12-20T07:14:16;2.40;78.86
74792;SHT30;63319;46.046;17.802;2023-12-20T07:17:19;3.09;76.50
74792;SHT30;63319;46.046;17.802;2023-12-20T07:20:23;3.94;72.97
74792;SHT30;63319;46.046;17.802;2023-12-20T07:23:26;4.96;70.04
74792;SHT30;63319;46.046;17.802;2023-12-20T07:26:29;4.71;69.34
74792;SHT30;63319;46.046;17.802;2023-12-20T07:29:32;5.71;67.23
74792;SHT30;63319;46.046;17.802;2023-12-20T07:32:35;6.21;64.36
74792;SHT30;63319;46.046;17.802;2023-12-20T07:35:38;6.63;62.83
74792;SHT30;63319;46.046;17.802;2023-12-20T07:38:42;4.33;68.41
74792;SHT30;63319;46.046;17.802;2023-12-20T07:41:46;5.69;68.21
74792;SHT30;63319;46.046;17.802;2023-12-20T07:44:49;6.21;63.97
74792;SHT30;63319;46.046;17.802;2023-12-20T07:47:53;6.73;61.76
74792;SHT30;63319;46.046;17.802;2023-12-20T07:50:56;6.57;62.57
74792;SHT30;63319;46.046;17.802;2023-12-20T07:54:00;6.11;62.87
74792;SHT30;63319;46.046;17.802;2023-12-20T07:57:03;7.36;61.55
74792;SHT30;63319;46.046;17.802;2023-12-20T08:00:07;7.51;60.51
74792;SHT30;63319;46.046;17.802;2023-12-20T08:03:11;8.04;60.97
74792;SHT30;63319;46.046;17.802;2023-12-20T08:06:21;8.07;58.84
74792;SHT30;63319;46.046;17.802;2023-12-20T08:09:26;8.55;57.43
74792;SHT30;63319;46.046;17.802;2023-12-20T08:12:29;8.31;58.14
74792;SHT30;63319;46.046;17.802;2023-12-20T08:15:32;8.51;55.42
74792;SHT30;63319;46.046;17.802;2023-12-20T08:18:35;9.63;51.13
74792;SHT30;63319;46.046;17.802;2023-12-20T08:21:39;9.41;51.89
74792;SHT30;63319;46.046;17.802;2023-12-20T08:24:42;8.73;54.27
74792;SHT30;63319;46.046;17.802;2023-12-20T08:27:45;9.83;51.38
74792;SHT30;63319;46.046;17.802;2023-12-20T08:30:48;10.38;49.21
74792;SHT30;63319;46.046;17.802;2023-12-20T08:33:51;10.30;48.93
74792;SHT30;63319;46.046;17.802;2023-12-20T08:36:56;9.57;51.33
74792;SHT30;63319;46.046;17.802;2023-12-20T08:39:58;9.06;52.18
74792;SHT30;63319;46.046;17.802;2023-12-20T08:43:01;9.92;50.29
74792;SHT30;63319;46.046;17.802;2023-12-20T08:46:04;9.86;50.09
74792;SHT30;63319;46.046;17.802;2023-12-20T08:49:08;8.69;54.17
74792;SHT30;63319;46.046;17.802;2023-12-20T08:52:12;10.27;49.68
74792;SHT30;63319;46.046;17.802;2023-12-20T08:55:15;10.68;49.09
74792;SHT30;63319;46.046;17.802;2023-12-20T08:58:20;10.23;50.33
74792;SHT30;63319;46.046;17.802;2023-12-20T09:01:23;9.77;51.41
74792;SHT30;63319;46.046;17.802;2023-12-20T09:04:26;8.37;54.73
74792;SHT30;63319;46.046;17.802;2023-12-20T09:07:29;10.02;51.17
74792;SHT30;63319;46.046;17.802;2023-12-20T09:10:36;10.48;49.94
74792;SHT30;63319;46.046;17.802;2023-12-20T09:13:40;10.53;50.15
74792;SHT30;63319;46.046;17.802;2023-12-20T09:16:42;10.79;48.34
74792;SHT30;63319;46.046;17.802;2023-12-20T09:19:46;10.40;50.73
74792;SHT30;63319;46.046;17.802;2023-12-20T09:22:50;10.09;52.43
74792;SHT30;63319;46.046;17.802;2023-12-20T09:25:54;11.19;49.13
74792;SHT30;63319;46.046;17.802;2023-12-20T09:29:00;12.55;47.34
74792;SHT30;63319;46.046;17.802;2023-12-20T09:32:03;12.72;44.85
74792;SHT30;63319;46.046;17.802;2023-12-20T09:35:06;10.88;50.40
74792;SHT30;63319;46.046;17.802;2023-12-20T09:38:11;9.20;55.21
74792;SHT30;63319;46.046;17.802;2023-12-20T09:41:15;8.41;56.51
74792;SHT30;63319;46.046;17.802;2023-12-20T09:44:19;7.14;62.12
74792;SHT30;63319;46.046;17.802;2023-12-20T09:47:23;6.73;63.63
74792;SHT30;63319;46.046;17.802;2023-12-20T09:50:27;7.55;60.89
74792;SHT30;63319;46.046;17.802;2023-12-20T09:53:31;7.25;62.62
74792;SHT30;63319;46.046;17.802;2023-12-20T09:56:37;7.15;63.38
74792;SHT30;63319;46.046;17.802;2023-12-20T09:59:40;6.70;65.21
74792;SHT30;63319;46.046;17.802;2023-12-20T10:03:01;6.36;66.16
74792;SHT30;63319;46.046;17.802;2023-12-20T10:06:06;5.09;70.53
74792;SHT30;63319;46.046;17.802;2023-12-20T10:09:11;5.89;69.26
74792;SHT30;63319;46.046;17.802;2023-12-20T10:12:14;5.83;68.40
74792;SHT30;63319;46.046;17.802;2023-12-20T10:15:16;4.66;73.11
74792;SHT30;63319;46.046;17.802;2023-12-20T10:18:20;6.17;70.01
74792;SHT30;63319;46.046;17.802;2023-12-20T10:21:24;9.58;57.86
74792;SHT30;63319;46.046;17.802;2023-12-20T10:24:29;8.38;61.48
74792;SHT30;63319;46.046;17.802;2023-12-20T10:27:32;6.25;68.21
74792;SHT30;63319;46.046;17.802;2023-12-20T10:30:36;5.36;72.28
74792;SHT30;63319;46.046;17.802;2023-12-20T10:33:40;5.56;71.86
74792;SHT30;63319;46.046;17.802;2023-12-20T10:36:44;6.73;68.18
74792;SHT30;63319;46.046;17.802;2023-12-20T10:39:51;7.38;65.14
74792;SHT30;63319;46.046;17.802;2023-12-20T10:42:56;5.64;73.23
74792;SHT30;63319;46.046;17.802;2023-12-20T10:45:59;4.74;73.77
74792;SHT30;63319;46.046;17.802;2023-12-20T10:49:05;3.98;78.12
74792;SHT30;63319;46.046;17.802;2023-12-20T10:52:09;3.92;77.29
74792;SHT30;63319;46.046;17.802;2023-12-20T10:55:13;5.90;70.60
74792;SHT30;63319;46.046;17.802;2023-12-20T10:58:18;8.61;62.46
74792;SHT30;63319;46.046;17.802;2023-12-20T11:01:23;6.29;67.52
74792;SHT30;63319;46.046;17.802;2023-12-20T11:04:35;4.68;73.47
74792;SHT30;63319;46.046;17.802;2023-12-20T11:07:44;6.14;68.68
74792;SHT30;63319;46.046;17.802;2023-12-20T11:11:07;6.28;67.52
74792;SHT30;63319;46.046;17.802;2023-12-20T11:14:22;6.41;67.71
74792;SHT30;63319;46.046;17.802;2023-12-20T11:17:26;7.05;64.93
74792;SHT30;63319;46.046;17.802;2023-12-20T11:20:38;6.25;69.35
74792;SHT30;63319;46.046;17.802;2023-12-20T11:23:42;7.07;65.94
74792;SHT30;63319;46.046;17.802;2023-12-20T11:26:48;6.02;69.00
74792;SHT30;63319;46.046;17.802;2023-12-20T11:29:53;4.77;74.04
74792;SHT30;63319;46.046;17.802;2023-12-20T11:32:56;3.77;77.11
74792;SHT30;63319;46.046;17.802;2023-12-20T11:35:59;5.75;72.13
74792;SHT30;63319;46.046;17.802;2023-12-20T11:39:04;5.80;71.06
74792;SHT30;63319;46.046;17.802;2023-12-20T11:42:14;7.79;65.44
74792;SHT30;63319;46.046;17.802;2023-12-20T11:45:21;8.66;61.85
74792;SHT30;63319;46.046;17.802;2023-12-20T11:48:25;5.81;69.89
74792;SHT30;63319;46.046;17.802;2023-12-20T11:51:28;4.88;73.00
74792;SHT30;63319;46.046;17.802;2023-12-20T11:54:31;5.12;75.17
74792;SHT30;63319;46.046;17.802;2023-12-20T11:57:34;6.31;70.88
74792;SHT30;63319;46.046;17.802;2023-12-20T12:00:38;5.73;71.58
74792;SHT30;63319;46.046;17.802;2023-12-20T12:03:41;6.50;68.46
74792;SHT30;63319;46.046;17.802;2023-12-20T12:06:45;6.17;70.74
74792;SHT30;63319;46.046;17.802;2023-12-20T12:09:49;6.38;69.70
74792;SHT30;63319;46.046;17.802;2023-12-20T12:12:52;7.00;68.27
74792;SHT30;63319;46.046;17.802;2023-12-20T12:15:56;6.77;69.27
74792;SHT30;63319;46.046;17.802;2023-12-20T12:19:00;6.12;72.65
74792;SHT30;63319;46.046;17.802;2023-12-20T12:22:08;5.09;73.88
74792;SHT30;63319;46.046;17.802;2023-12-20T12:25:18;5.24;74.76
74792;SHT30;63319;46.046;17.802;2023-12-20T12:28:26;4.78;75.27
74792;SHT30;63319;46.046;17.802;2023-12-20T12:31:31;5.46;73.51
74792;SHT30;63319;46.046;17.802;2023-12-20T12:34:36;5.63;73.33
74792;SHT30;63319;46.046;17.802;2023-12-20T12:37:40;5.83;72.75
74792;SHT30;63319;46.046;17.802;2023-12-20T12:40:43;5.49;73.44
74792;SHT30;63319;46.046;17.802;2023-12-20T12:43:46;5.46;72.54
74792;SHT30;63319;46.046;17.802;2023-12-20T12:46:49;8.16;65.97
74792;SHT30;63319;46.046;17.802;2023-12-20T12:49:53;7.34;65.29
74792;SHT30;63319;46.046;17.802;2023-12-20T12:52:57;6.33;71.05
74792;SHT30;63319;46.046;17.802;2023-12-20T12:56:00;6.00;71.56
74792;SHT30;63319;46.046;17.802;2023-12-20T12:59:03;7.59;67.39
74792;SHT30;63319;46.046;17.802;2023-12-20T13:02:05;7.85;67.09
74792;SHT30;63319;46.046;17.802;2023-12-20T13:05:09;7.61;65.73
74792;SHT30;63319;46.046;17.802;2023-12-20T13:08:13;5.64;72.19
74792;SHT30;63319;46.046;17.802;2023-12-20T13:11:16;5.81;73.43
74792;SHT30;63319;46.046;17.802;2023-12-20T13:14:19;5.69;74.14
74792;SHT30;63319;46.046;17.802;2023-12-20T13:17:22;5.32;75.65
74792;SHT30;63319;46.046;17.802;2023-12-20T13:20:25;5.57;74.92
74792;SHT30;63319;46.046;17.802;2023-12-20T13:23:28;4.89;76.52
74792;SHT30;63319;46.046;17.802;2023-12-20T13:26:31;4.43;77.91
74792;SHT30;63319;46.046;17.802;2023-12-20T13:29:35;4.83;78.50
74792;SHT30;63319;46.046;17.802;2023-12-20T13:32:41;5.24;76.93
74792;SHT30;63319;46.046;17.802;2023-12-20T13:35:44;5.31;75.74
74792;SHT30;63319;46.046;17.802;2023-12-20T13:38:47;3.95;80.75
74792;SHT30;63319;46.046;17.802;2023-12-20T13:41:50;4.42;79.02
74792;SHT30;63319;46.046;17.802;2023-12-20T13:44:53;3.66;82.83
74792;SHT30;63319;46.046;17.802;2023-12-20T13:47:56;4.08;81.88
74792;SHT30;63319;46.046;17.802;2023-12-20T13:50:59;4.32;79.84
74792;SHT30;63319;46.046;17.802;2023-12-20T13:54:02;4.71;79.52
74792;SHT30;63319;46.046;17.802;2023-12-20T13:57:05;5.11;77.84
74792;SHT30;63319;46.046;17.802;2023-12-20T14:00:23;5.09;77.64
74792;SHT30;63319;46.046;17.802;2023-12-20T14:03:26;4.78;78.79
74792;SHT30;63319;46.046;17.802;2023-12-20T14:06:29;4.94;78.51
74792;SHT30;63319;46.046;17.802;2023-12-20T14:09:33;4.96;78.71
74792;SHT30;63319;46.046;17.802;2023-12-20T14:12:38;4.73;78.94
74792;SHT30;63319;46.046;17.802;2023-12-20T14:15:41;4.64;79.01
74792;SHT30;63319;46.046;17.802;2023-12-20T14:18:44;4.43;80.08
74792;SHT30;63319;46.046;17.802;2023-12-20T14:21:46;4.46;80.24
74792;SHT30;63319;46.046;17.802;2023-12-20T14:24:49;4.05;81.99
74792;SHT30;63319;46.046;17.802;2023-12-20T14:27:52;4.25;80.86
74792;SHT30;63319;46.046;17.802;2023-12-20T14:30:56;4.18;81.96
74792;SHT30;63319;46.046;17.802;2023-12-20T14:33:59;4.52;80.74
74792;SHT30;63319;46.046;17.802;2023-12-20T14:37:06;4.26;80.64
74792;SHT30;63319;46.046;17.802;2023-12-20T14:40:10;4.26;80.69
74792;SHT30;63319;46.046;17.802;2023-12-20T14:43:18;4.39;80.38
74792;SHT30;63319;46.046;17.802;2023-12-20T14:46:21;4.63;80.35
74792;SHT30;63319;46.046;17.802;2023-12-20T14:49:23;4.15;81.46
74792;SHT30;63319;46.046;17.802;2023-12-20T14:52:27;3.77;83.73
74792;SHT30;63319;46.046;17.802;2023-12-20T14:55:30;4.05;82.15
74792;SHT30;63319;46.046;17.802;2023-12-20T14:58:33;3.92;82.67
74792;SHT30;63319;46.046;17.802;2023-12-20T15:01:36;3.66;83.35
74792;SHT30;63319;46.046;17.802;2023-12-20T15:04:40;2.71;86.83
74792;SHT30;63319;46.046;17.802;2023-12-20T15:07:43;3.08;86.61
74792;SHT30;63319;46.046;17.802;2023-12-20T15:10:47;2.80;87.40
74792;SHT30;63319;46.046;17.802;2023-12-20T15:13:49;3.01;86.85
74792;SHT30;63319;46.046;17.802;2023-12-20T15:16:58;3.78;83.45
74792;SHT30;63319;46.046;17.802;2023-12-20T15:20:01;3.87;82.79
74792;SHT30;63319;46.046;17.802;2023-12-20T15:23:05;3.95;82.24
74792;SHT30;63319;46.046;17.802;2023-12-20T15:26:10;3.87;82.74
74792;SHT30;63319;46.046;17.802;2023-12-20T15:29:13;4.06;82.14
74792;SHT30;63319;46.046;17.802;2023-12-20T15:32:17;3.79;83.28
74792;SHT30;63319;46.046;17.802;2023-12-20T15:35:23;4.15;81.40
74792;SHT30;63319;46.046;17.802;2023-12-20T15:38:26;3.39;82.80
74792;SHT30;63319;46.046;17.802;2023-12-20T15:41:29;3.74;82.76
74792;SHT30;63319;46.046;17.802;2023-12-20T15:44:32;4.05;81.85
74792;SHT30;63319;46.046;17.802;2023-12-20T15:47:35;4.06;81.77
74792;SHT30;63319;46.046;17.802;2023-12-20T15:50:41;3.43;83.94
74792;SHT30;63319;46.046;17.802;2023-12-20T15:53:44;3.39;85.45
74792;SHT30;63319;46.046;17.802;2023-12-20T15:56:47;3.82;82.86
74792;SHT30;63319;46.046;17.802;2023-12-20T15:59:50;3.23;84.48
74792;SHT30;63319;46.046;17.802;2023-12-20T16:02:53;3.71;82.59
74792;SHT30;63319;46.046;17.802;2023-12-20T16:05:56;3.75;82.44
74792;SHT30;63319;46.046;17.802;2023-12-20T16:09:01;3.61;82.72
74792;SHT30;63319;46.046;17.802;2023-12-20T16:12:05;3.02;84.40
74792;SHT30;63319;46.046;17.802;2023-12-20T16:15:08;2.57;86.86
74792;SHT30;63319;46.046;17.802;2023-12-20T16:18:11;1.93;88.63
74792;SHT30;63319;46.046;17.802;2023-12-20T16:21:14;2.06;87.83
74792;SHT30;63319;46.046;17.802;2023-12-20T16:24:17;1.92;88.85
74792;SHT30;63319;46.046;17.802;2023-12-20T16:27:20;2.43;87.90
74792;SHT30;63319;46.046;17.802;2023-12-20T16:30:23;2.03;87.97
74792;SHT30;63319;46.046;17.802;2023-12-20T16:33:26;2.09;88.48
74792;SHT30;63319;46.046;17.802;2023-12-20T16:36:51;2.12;88.73
74792;SHT30;63319;46.046;17.802;2023-12-20T16:39:54;2.50;88.23
74792;SHT30;63319;46.046;17.802;2023-12-20T16:42:57;2.92;85.38
74792;SHT30;63319;46.046;17.802;2023-12-20T16:46:00;2.77;87.08
74792;SHT30;63319;46.046;17.802;2023-12-20T16:49:08;3.33;83.76
74792;SHT30;63319;46.046;17.802;2023-12-20T16:52:11;3.02;82.77
74792;SHT30;63319;46.046;17.802;2023-12-20T16:55:14;3.31;83.04
74792;SHT30;63319;46.046;17.802;2023-12-20T16:58:17;2.70;83.50
74792;SHT30;63319;46.046;17.802;2023-12-20T17:01:21;3.67;82.18
74792;SHT30;63319;46.046;17.802;2023-12-20T17:04:25;2.80;83.23
74792;SHT30;63319;46.046;17.802;2023-12-20T17:07:28;2.91;84.71
74792;SHT30;63319;46.046;17.802;2023-12-20T17:10:31;3.29;82.75
74792;SHT30;63319;46.046;17.802;2023-12-20T17:13:34;2.92;83.05
74792;SHT30;63319;46.046;17.802;2023-12-20T17:16:38;3.71;81.33
74792;SHT30;63319;46.046;17.802;2023-12-20T17:19:40;3.18;82.90
74792;SHT30;63319;46.046;17.802;2023-12-20T17:22:44;3.49;82.31
74792;SHT30;63319;46.046;17.802;2023-12-20T17:25:47;3.43;81.22
74792;SHT30;63319;46.046;17.802;2023-12-20T17:28:50;3.24;80.86
74792;SHT30;63319;46.046;17.802;2023-12-20T17:31:53;3.46;81.45
74792;SHT30;63319;46.046;17.802;2023-12-20T17:34:56;2.99;82.90
74792;SHT30;63319;46.046;17.802;2023-12-20T17:38:00;3.27;81.52
74792;SHT30;63319;46.046;17.802;2023-12-20T17:41:03;2.77;83.58
74792;SHT30;63319;46.046;17.802;2023-12-20T17:44:06;2.43;84.80
74792;SHT30;63319;46.046;17.802;2023-12-20T17:47:09;2.95;83.34
74792;SHT30;63319;46.046;17.802;2023-12-20T17:50:12;2.50;83.59
74792;SHT30;63319;46.046;17.802;2023-12-20T17:53:16;2.29;87.02
74792;SHT30;63319;46.046;17.802;2023-12-20T17:56:19;2.88;82.90
74792;SHT30;63319;46.046;17.802;2023-12-20T17:59:22;2.66;84.98
74792;SHT30;63319;46.046;17.802;2023-12-20T18:02:26;2.44;84.09
74792;SHT30;63319;46.046;17.802;2023-12-20T18:05:29;2.40;85.83
74792;SHT30;63319;46.046;17.802;2023-12-20T18:08:33;3.10;83.16
74792;SHT30;63319;46.046;17.802;2023-12-20T18:11:36;3.41;81.17
74792;SHT30;63319;46.046;17.802;2023-12-20T18:14:40;2.26;84.62
74792;SHT30;63319;46.046;17.802;2023-12-20T18:17:44;2.06;86.38
74792;SHT30;63319;46.046;17.802;2023-12-20T18:20:49;1.68;87.56
74792;SHT30;63319;46.046;17.802;2023-12-20T18:23:53;1.50;88.65
74792;SHT30;63319;46.046;17.802;2023-12-20T18:27:10;1.62;88.68
74792;SHT30;63319;46.046;17.802;2023-12-20T18:30:14;1.82;86.86
74792;SHT30;63319;46.046;17.802;2023-12-20T18:33:19;1.87;87.11
74792;SHT30;63319;46.046;17.802;2023-12-20T18:36:23;1.72;87.69
74792;SHT30;63319;46.046;17.802;2023-12-20T18:39:27;2.16;85.49
74792;SHT30;63319;46.046;17.802;2023-12-20T18:42:31;2.60;85.54
74792;SHT30;63319;46.046;17.802;2023-12-20T18:45:35;2.27;85.00
74792;SHT30;63319;46.046;17.802;2023-12-20T18:48:39;2.55;84.71
74792;SHT30;63319;46.046;17.802;2023-12-20T18:51:45;2.07;86.17
74792;SHT30;63319;46.046;17.802;2023-12-20T18:54:49;2.19;85.24
74792;SHT30;63319;46.046;17.802;2023-12-20T18:57:54;2.32;86.81
74792;SHT30;63319;46.046;17.802;2023-12-20T19:00:58;2.84;83.18
74792;SHT30;63319;46.046;17.802;2023-12-20T19:04:04;2.57;84.31
74792;SHT30;63319;46.046;17.802;2023-12-20T19:07:08;2.40;83.46
74792;SHT30;63319;46.046;17.802;2023-12-20T19:10:12;2.64;85.35
74792;SHT30;63319;46.046;17.802;2023-12-20T19:13:16;3.24;82.94
74792;SHT30;63319;46.046;17.802;2023-12-20T19:16:20;3.15;80.46
74792;SHT30;63319;46.046;17.802;2023-12-20T19:19:24;2.36;83.77
74792;SHT30;63319;46.046;17.802;2023-12-20T19:22:28;2.07;86.15